createdAt,value
2017-11-28T00:01:40.100Z,5.40
2017-11-28T00:04:08.371Z,5.40
2017-11-28T00:06:36.708Z,5.40
2017-11-28T00:09:06.279Z,5.40
2017-11-28T00:11:35.332Z,5.40
2017-11-28T00:14:03.629Z,5.40
2017-11-28T00:16:31.879Z,5.40
2017-11-28T00:19:00.131Z,5.40
2017-11-28T00:21:28.432Z,5.30
2017-11-28T00:23:56.712Z,5.30
2017-11-28T00:26:25.412Z,5.40
2017-11-28T00:28:53.699Z,5.30
2017-11-28T00:31:21.932Z,5.30
2017-11-28T00:33:50.994Z,5.40
2017-11-28T00:36:19.234Z,5.40
2017-11-28T00:38:47.488Z,5.40
2017-11-28T00:41:16.526Z,5.30
2017-11-28T00:43:44.789Z,5.30
2017-11-28T00:46:13.083Z,5.30
2017-11-28T00:48:41.433Z,5.30
2017-11-28T00:51:09.682Z,5.30
2017-11-28T00:53:37.961Z,5.30
2017-11-28T00:56:06.224Z,5.40
2017-11-28T00:58:35.247Z,5.30
2017-11-28T01:01:03.507Z,5.30
2017-11-28T01:03:32.515Z,5.30
2017-11-28T01:06:00.817Z,5.30
2017-11-28T01:08:29.076Z,5.30
2017-11-28T01:10:58.062Z,5.30
2017-11-28T01:13:28.041Z,5.30
2017-11-28T01:15:56.429Z,5.30
2017-11-28T01:18:24.681Z,5.30
2017-11-28T01:20:52.927Z,5.40
2017-11-28T01:23:21.133Z,5.40
2017-11-28T01:25:49.411Z,5.30
2017-11-28T01:28:18.899Z,5.40
2017-11-28T01:30:47.155Z,5.40
2017-11-28T01:33:15.446Z,5.40
2017-11-28T01:35:44.523Z,5.40
2017-11-28T01:38:12.779Z,5.40
2017-11-28T01:40:41.782Z,5.50
2017-11-28T01:43:10.082Z,5.50
2017-11-28T01:45:38.420Z,5.40
2017-11-28T01:48:08.173Z,5.50
2017-11-28T01:50:36.457Z,5.50
2017-11-28T01:53:04.708Z,5.50
2017-11-28T01:55:33.279Z,5.60
2017-11-28T01:58:01.531Z,5.60
2017-11-28T02:00:29.806Z,5.50
2017-11-28T02:02:58.077Z,5.50
2017-11-28T02:05:26.352Z,5.40
2017-11-28T02:07:54.607Z,5.40
2017-11-28T02:10:22.919Z,5.50
2017-11-28T02:12:51.242Z,5.50
2017-11-28T02:15:19.448Z,5.50
2017-11-28T02:17:47.687Z,5.60
2017-11-28T02:20:16.725Z,5.60
2017-11-28T02:22:44.968Z,5.60
2017-11-28T02:25:13.218Z,5.60
2017-11-28T02:27:41.466Z,5.60
2017-11-28T02:30:09.735Z,5.60
2017-11-28T02:32:38.366Z,5.60
2017-11-28T02:35:06.587Z,5.60
2017-11-28T02:37:34.891Z,5.60
2017-11-28T02:40:03.175Z,5.50
2017-11-28T02:42:31.423Z,5.60
2017-11-28T02:44:59.672Z,5.50
2017-11-28T02:47:27.923Z,5.50
2017-11-28T02:49:56.192Z,5.50
2017-11-28T02:52:24.403Z,5.50
2017-11-28T02:55:09.477Z,5.50
2017-11-28T02:57:42.345Z,5.60
2017-11-28T03:00:11.369Z,5.50
2017-11-28T03:02:39.653Z,5.50
2017-11-28T03:05:07.901Z,5.40
2017-11-28T03:07:38.655Z,5.50
2017-11-28T03:10:21.663Z,5.50
2017-11-28T03:12:51.678Z,5.50
2017-11-28T03:15:22.493Z,5.50
2017-11-28T03:17:50.750Z,5.50
2017-11-28T03:20:30.617Z,5.50
2017-11-28T03:23:06.362Z,5.60
2017-11-28T03:25:35.458Z,5.60
2017-11-28T03:31:22.973Z,5.50
2017-11-28T03:33:51.807Z,5.60
2017-11-28T03:36:19.818Z,5.70
2017-11-28T03:38:47.827Z,5.70
2017-11-28T03:41:16.570Z,5.70
2017-11-28T03:43:44.577Z,5.70
2017-11-28T03:46:16.204Z,5.70
2017-11-28T03:48:44.432Z,5.70
2017-11-28T03:51:12.709Z,5.70
2017-11-28T03:53:40.972Z,5.70
2017-11-28T03:56:09.289Z,5.70
2017-11-28T03:58:37.531Z,5.70
2017-11-28T04:01:05.813Z,5.70
2017-11-28T04:03:34.740Z,5.70
2017-11-28T04:06:03.022Z,5.70
2017-11-28T04:08:32.153Z,5.80
2017-11-28T04:11:00.451Z,5.80
2017-11-28T04:13:28.705Z,5.80
2017-11-28T04:15:56.980Z,5.80
2017-11-28T04:18:25.249Z,5.70
2017-11-28T04:20:53.495Z,5.70
2017-11-28T04:23:21.795Z,5.70
2017-11-28T04:25:50.028Z,5.80
2017-11-28T04:28:19.052Z,5.70
2017-11-28T04:30:47.320Z,5.70
2017-11-28T04:33:15.599Z,5.70
2017-11-28T04:35:44.624Z,5.70
2017-11-28T04:38:12.987Z,5.70
2017-11-28T04:40:41.248Z,5.70
2017-11-28T04:43:10.324Z,5.80
2017-11-28T04:45:38.589Z,5.80
2017-11-28T04:48:06.872Z,5.80
2017-11-28T04:50:35.125Z,5.80
2017-11-28T04:53:03.394Z,5.80
2017-11-28T04:55:31.649Z,5.80
2017-11-28T04:57:59.900Z,5.80
2017-11-28T05:00:28.942Z,5.80
2017-11-28T05:02:57.192Z,5.80
2017-11-28T05:05:26.206Z,5.80
2017-11-28T05:07:54.471Z,5.80
2017-11-28T05:10:23.478Z,5.60
2017-11-28T05:12:51.727Z,5.60
2017-11-28T05:15:20.014Z,5.60
2017-11-28T05:17:49.025Z,5.70
2017-11-28T05:20:17.309Z,5.70
2017-11-28T05:22:45.567Z,5.70
2017-11-28T05:25:13.831Z,5.70
2017-11-28T05:27:42.144Z,5.80
2017-11-28T05:30:10.976Z,5.80
2017-11-28T05:32:39.258Z,5.80
2017-11-28T05:35:08.315Z,5.90
2017-11-28T05:37:36.585Z,5.90
2017-11-28T05:40:04.893Z,5.90
2017-11-28T05:42:33.173Z,6.00
2017-11-28T05:45:01.474Z,6.00
2017-11-28T05:47:30.480Z,6.00
2017-11-28T05:49:58.795Z,6.00
2017-11-28T05:52:27.071Z,6.00
2017-11-28T05:54:56.084Z,6.10
2017-11-28T05:57:24.394Z,6.10
2017-11-28T05:59:52.634Z,6.00
2017-11-28T06:02:21.804Z,6.00
2017-11-28T06:04:50.104Z,6.00
2017-11-28T06:07:18.388Z,6.00
2017-11-28T06:09:46.683Z,6.00
2017-11-28T06:12:14.971Z,5.90
2017-11-28T06:14:43.228Z,5.80
2017-11-28T06:17:11.504Z,5.80
2017-11-28T06:19:39.782Z,5.80
2017-11-28T06:22:08.072Z,5.80
2017-11-28T06:24:36.324Z,5.80
2017-11-28T06:27:04.582Z,5.70
2017-11-28T06:29:32.878Z,5.70
2017-11-28T06:32:01.116Z,5.70
2017-11-28T06:34:30.144Z,5.70
2017-11-28T06:36:58.465Z,5.70
2017-11-28T06:39:37.464Z,5.80
2017-11-28T06:42:24.159Z,5.80
2017-11-28T06:44:52.449Z,5.80
2017-11-28T06:47:21.506Z,5.70
2017-11-28T06:49:49.781Z,5.60
2017-11-28T06:52:18.149Z,5.60
2017-11-28T06:54:46.500Z,5.60
2017-11-28T06:57:14.775Z,5.60
2017-11-28T06:59:58.746Z,5.60
2017-11-28T07:02:26.984Z,5.70
2017-11-28T07:04:56.070Z,5.80
2017-11-28T07:07:24.399Z,5.70
2017-11-28T07:09:52.623Z,5.80
2017-11-28T07:12:20.908Z,5.80
2017-11-28T07:14:49.331Z,5.80
2017-11-28T07:17:17.988Z,5.80
2017-11-28T07:19:46.281Z,5.70
2017-11-28T07:22:14.559Z,5.70
2017-11-28T07:24:42.874Z,5.70
2017-11-28T07:27:11.136Z,5.70
2017-11-28T07:29:40.199Z,5.70
2017-11-28T07:32:08.513Z,5.60
2017-11-28T07:34:37.549Z,5.50
2017-11-28T07:37:05.872Z,5.50
2017-11-28T07:39:34.125Z,5.40
2017-11-28T07:42:02.401Z,5.50
2017-11-28T07:44:30.715Z,5.40
2017-11-28T07:46:59.812Z,5.40
2017-11-28T07:49:28.051Z,5.40
2017-11-28T07:51:56.323Z,5.30
2017-11-28T07:54:24.638Z,5.40
2017-11-28T07:56:52.881Z,5.40
2017-11-28T07:59:21.136Z,5.50
2017-11-28T08:01:49.464Z,5.50
2017-11-28T08:04:18.529Z,5.50
2017-11-28T08:06:46.871Z,5.50
2017-11-28T08:09:15.244Z,5.60
2017-11-28T08:11:44.280Z,5.60
2017-11-28T08:14:12.563Z,5.60
2017-11-28T08:16:40.808Z,5.70
2017-11-28T08:19:09.112Z,5.70
2017-11-28T08:21:37.623Z,5.70
2017-11-28T08:24:05.889Z,5.80
2017-11-28T08:26:35.104Z,5.80
2017-11-28T08:29:03.355Z,5.80
2017-11-28T08:31:32.412Z,5.90
2017-11-28T08:34:00.686Z,5.90
2017-11-28T08:36:29.730Z,5.90
2017-11-28T08:38:58.760Z,5.70
2017-11-28T08:41:27.820Z,5.60
2017-11-28T08:43:56.089Z,5.60
2017-11-28T08:46:24.372Z,5.60
2017-11-28T08:48:52.637Z,5.60
2017-11-28T08:51:20.919Z,5.60
2017-11-28T08:53:49.180Z,5.70
2017-11-28T08:56:17.485Z,5.80
2017-11-28T08:58:45.721Z,5.90
2017-11-28T09:01:14.389Z,5.70
2017-11-28T09:03:43.433Z,5.60
2017-11-28T09:06:11.708Z,5.60
2017-11-28T09:08:40.031Z,5.60
2017-11-28T09:11:09.071Z,5.50
2017-11-28T09:13:38.138Z,5.50
2017-11-28T09:16:06.397Z,5.50
2017-11-28T09:18:35.417Z,5.70
2017-11-28T09:21:03.685Z,5.60
2017-11-28T09:23:31.996Z,5.80
2017-11-28T09:26:00.303Z,5.90
2017-11-28T09:28:29.385Z,6.00
2017-11-28T09:30:57.710Z,6.00
2017-11-28T09:33:25.999Z,5.90
2017-11-28T09:35:55.037Z,6.00
2017-11-28T09:38:23.297Z,6.00
2017-11-28T09:40:51.574Z,6.00
2017-11-28T09:43:19.863Z,6.00
2017-11-28T09:45:48.103Z,6.10
2017-11-28T09:48:16.394Z,6.20
2017-11-28T09:50:44.661Z,6.30
2017-11-28T09:53:12.918Z,6.20
2017-11-28T09:55:41.953Z,6.30
2017-11-28T09:58:10.252Z,6.20
2017-11-28T10:00:38.498Z,6.40
2017-11-28T10:03:06.777Z,6.50
2017-11-28T10:05:35.064Z,6.50
2017-11-28T10:08:03.317Z,6.50
2017-11-28T10:10:31.650Z,6.50
2017-11-28T10:12:59.957Z,6.50
2017-11-28T10:15:29.027Z,6.60
2017-11-28T10:17:57.638Z,6.60
2017-11-28T10:20:25.911Z,6.60
2017-11-28T10:22:54.752Z,6.40
2017-11-28T10:25:25.480Z,6.40
2017-11-28T10:27:53.697Z,6.30
2017-11-28T10:30:21.961Z,6.10
2017-11-28T10:32:50.230Z,6.20
2017-11-28T10:35:18.494Z,6.20
2017-11-28T10:37:47.358Z,6.20
2017-11-28T10:40:15.668Z,6.30
2017-11-28T10:42:43.992Z,6.10
2017-11-28T10:45:12.327Z,6.20
2017-11-28T10:47:40.638Z,6.20
2017-11-28T10:50:09.032Z,6.20
2017-11-28T10:52:37.288Z,6.50
2017-11-28T10:55:05.552Z,6.70
2017-11-28T10:57:33.840Z,6.60
2017-11-28T11:00:02.096Z,6.70
2017-11-28T11:02:30.357Z,6.70
2017-11-28T11:04:58.620Z,6.50
2017-11-28T11:07:28.010Z,6.50
2017-11-28T11:09:57.071Z,6.70
2017-11-28T11:12:25.784Z,6.70
2017-11-28T11:14:54.909Z,6.80
2017-11-28T11:17:24.399Z,6.90
2017-11-28T11:19:53.494Z,6.80
2017-11-28T11:22:21.737Z,6.70
2017-11-28T11:24:50.043Z,7.10
2017-11-28T11:27:18.350Z,7.40
2017-11-28T11:29:46.696Z,7.50
2017-11-28T11:32:15.891Z,7.70
2017-11-28T11:34:44.944Z,7.60
2017-11-28T11:37:13.858Z,7.60
2017-11-28T11:39:42.130Z,7.40
2017-11-28T11:42:10.745Z,7.30
2017-11-28T11:44:38.963Z,7.30
2017-11-28T11:47:07.259Z,7.40
2017-11-28T11:49:35.547Z,7.40
2017-11-28T11:52:03.751Z,7.60
2017-11-28T11:54:32.047Z,7.60
2017-11-28T11:57:00.352Z,7.50
2017-11-28T11:59:28.922Z,7.40
2017-11-28T12:01:57.161Z,7.40
2017-11-28T12:04:25.409Z,7.30
2017-11-28T12:06:54.418Z,7.30
2017-11-28T12:09:23.026Z,7.20
2017-11-28T12:11:51.320Z,6.90
2017-11-28T12:14:19.582Z,6.90
2017-11-28T12:16:48.678Z,6.90
2017-11-28T12:19:20.925Z,6.90
2017-11-28T12:21:49.183Z,6.80
2017-11-28T12:24:18.424Z,6.70
2017-11-28T12:26:46.743Z,6.50
2017-11-28T12:29:14.983Z,6.50
2017-11-28T12:31:44.086Z,6.60
2017-11-28T12:34:12.421Z,6.60
2017-11-28T12:36:40.824Z,6.70
2017-11-28T12:39:09.077Z,6.60
2017-11-28T12:41:37.499Z,6.70
2017-11-28T12:44:07.547Z,6.70
2017-11-28T12:46:35.810Z,6.70
2017-11-28T12:49:04.840Z,6.80
2017-11-28T12:51:33.066Z,6.80
2017-11-28T12:54:02.114Z,6.50
2017-11-28T12:56:30.372Z,6.40
2017-11-28T12:58:58.661Z,6.50
2017-11-28T13:01:27.299Z,6.50
2017-11-28T13:03:55.963Z,6.40
2017-11-28T13:06:24.234Z,6.40
2017-11-28T13:08:52.491Z,6.40
2017-11-28T13:11:20.767Z,6.20
2017-11-28T13:13:49.017Z,6.20
2017-11-28T13:16:18.051Z,6.20
2017-11-28T13:18:46.339Z,6.20
2017-11-28T13:21:15.480Z,6.20
2017-11-28T13:23:44.527Z,6.20
2017-11-28T13:26:12.786Z,6.20
2017-11-28T13:28:41.848Z,6.20
2017-11-28T13:31:12.911Z,6.10
2017-11-28T13:33:42.300Z,6.20
2017-11-28T13:36:12.446Z,6.20
2017-11-28T13:38:41.669Z,6.20
2017-11-28T13:41:11.211Z,6.40
2017-11-28T13:43:40.409Z,6.60
2017-11-28T13:46:09.478Z,6.70
2017-11-28T13:48:38.500Z,6.80
2017-11-28T13:51:07.598Z,6.70
2017-11-28T13:53:35.852Z,6.60
2017-11-28T13:56:04.501Z,6.60
2017-11-28T13:58:33.462Z,6.50
2017-11-28T14:01:02.964Z,6.60
2017-11-28T14:03:32.118Z,6.60
2017-11-28T14:06:01.303Z,6.60
2017-11-28T14:08:29.615Z,6.70
2017-11-28T14:10:58.219Z,6.60
2017-11-28T14:13:26.495Z,6.60
2017-11-28T14:15:54.770Z,6.70
2017-11-28T14:18:23.832Z,6.80
2017-11-28T14:21:08.602Z,6.80
2017-11-28T14:23:43.401Z,6.90
2017-11-28T14:26:21.625Z,6.90
2017-11-28T14:29:05.211Z,6.90
2017-11-28T14:34:42.504Z,6.70
2017-11-28T14:37:10.890Z,6.70
2017-11-28T14:39:39.208Z,6.60
2017-11-28T14:45:14.821Z,6.60
2017-11-28T14:47:43.153Z,6.60
2017-11-28T14:50:11.432Z,6.50
2017-11-28T14:52:40.668Z,6.60
2017-11-28T14:55:14.578Z,6.50
2017-11-28T14:57:52.829Z,6.50
2017-11-28T15:00:26.834Z,6.50
2017-11-28T15:03:01.537Z,6.30
2017-11-28T15:05:34.520Z,6.30
2017-11-28T15:08:09.136Z,6.30
2017-11-28T15:10:47.314Z,6.10
2017-11-28T15:13:21.326Z,6.00
2017-11-28T15:15:55.358Z,5.80
2017-11-28T15:21:37.345Z,5.80
2017-11-28T15:24:23.477Z,5.80
2017-11-28T15:26:52.018Z,5.80
2017-11-28T15:29:21.075Z,5.80
2017-11-28T15:31:49.467Z,5.80
2017-11-28T15:34:17.700Z,5.80
2017-11-28T15:36:45.993Z,5.80
2017-11-28T15:39:14.394Z,5.90
2017-11-28T15:41:43.695Z,5.90
2017-11-28T15:44:11.994Z,6.00
2017-11-28T15:46:40.238Z,6.00
2017-11-28T15:49:08.570Z,6.00
2017-11-28T15:51:37.626Z,6.00
2017-11-28T15:54:05.929Z,6.00
2017-11-28T15:56:34.301Z,6.10
2017-11-28T15:59:03.293Z,6.10
2017-11-28T16:01:31.690Z,6.00
2017-11-28T16:04:00.798Z,6.00
2017-11-28T16:06:29.891Z,5.90
2017-11-28T16:08:58.178Z,5.90
2017-11-28T16:11:27.250Z,5.90
2017-11-28T16:13:55.576Z,5.80
2017-11-28T16:16:24.015Z,5.90
2017-11-28T16:18:52.266Z,5.80
2017-11-28T16:21:20.613Z,5.70
2017-11-28T16:23:48.990Z,5.60
2017-11-28T16:26:17.349Z,5.60
2017-11-28T16:28:47.455Z,5.50
2017-11-28T16:31:15.820Z,5.40
2017-11-28T16:33:44.189Z,5.40
2017-11-28T16:36:13.363Z,5.30
2017-11-28T16:38:41.661Z,5.30
2017-11-28T16:41:09.955Z,5.20
2017-11-28T16:43:39.069Z,5.20
2017-11-28T16:46:08.238Z,5.20
2017-11-28T16:48:36.595Z,5.20
2017-11-28T16:51:04.868Z,5.20
2017-11-28T16:53:33.195Z,5.10
2017-11-28T16:56:02.256Z,5.10
2017-11-28T16:58:30.552Z,5.10
2017-11-28T17:00:59.660Z,5.10
2017-11-28T17:03:27.971Z,5.10
2017-11-28T17:05:56.294Z,5.10
2017-11-28T17:08:24.569Z,5.10
2017-11-28T17:10:52.871Z,5.10
2017-11-28T17:13:21.873Z,5.10
2017-11-28T17:15:50.183Z,5.10
2017-11-28T17:18:18.467Z,5.20
2017-11-28T17:20:47.556Z,5.20
2017-11-28T17:23:15.888Z,5.20
2017-11-28T17:25:44.389Z,5.30
2017-11-28T17:28:12.995Z,5.30
2017-11-28T17:30:41.345Z,5.40
2017-11-28T17:33:09.608Z,5.40
2017-11-28T17:35:37.933Z,5.40
2017-11-28T17:38:07.451Z,5.50
2017-11-28T17:40:36.446Z,5.40
2017-11-28T17:43:04.813Z,5.40
2017-11-28T17:45:33.636Z,5.30
2017-11-28T17:48:02.033Z,5.40
2017-11-28T17:50:30.313Z,5.30
2017-11-28T17:52:58.652Z,5.30
2017-11-28T17:55:26.998Z,5.30
2017-11-28T17:57:56.121Z,5.30
2017-11-28T18:00:24.457Z,5.30
2017-11-28T18:02:52.749Z,5.20
2017-11-28T18:05:21.147Z,5.20
2017-11-28T18:07:50.245Z,5.30
2017-11-28T18:10:18.779Z,5.20
2017-11-28T18:12:47.225Z,5.30
2017-11-28T18:15:15.616Z,5.20
2017-11-28T18:17:44.031Z,5.30
2017-11-28T18:20:12.740Z,5.30
2017-11-28T18:22:41.233Z,5.40
2017-11-28T18:25:10.059Z,5.40
2017-11-28T18:27:40.199Z,5.30
2017-11-28T18:30:08.720Z,5.40
2017-11-28T18:32:37.126Z,5.40
2017-11-28T18:35:06.249Z,5.40
2017-11-28T18:37:34.677Z,5.40
2017-11-28T18:40:04.306Z,5.40
2017-11-28T18:42:32.745Z,5.30
2017-11-28T18:45:01.098Z,5.40
2017-11-28T18:47:29.681Z,5.30
2017-11-28T18:49:58.249Z,5.30
2017-11-28T18:52:27.583Z,5.30
2017-11-28T18:54:59.380Z,5.30
2017-11-28T18:57:28.686Z,5.30
2017-11-28T18:59:58.210Z,5.20
2017-11-28T19:02:28.256Z,5.30
2017-11-28T19:04:57.111Z,5.30
2017-11-28T19:07:27.115Z,5.30
2017-11-28T19:09:55.559Z,5.30
2017-11-28T19:12:24.796Z,5.40
2017-11-28T19:14:53.509Z,5.40
2017-11-28T19:17:21.905Z,5.40
2017-11-28T19:19:50.379Z,5.40
2017-11-28T19:22:18.759Z,5.40
2017-11-28T19:24:47.465Z,5.30
2017-11-28T19:27:15.863Z,5.40
2017-11-28T19:29:44.957Z,5.20
2017-11-28T19:32:13.473Z,5.20
2017-11-28T19:34:43.091Z,5.20
2017-11-28T19:37:12.287Z,5.30
2017-11-28T19:39:40.632Z,5.30
2017-11-28T19:42:09.472Z,5.40
2017-11-28T19:44:38.741Z,5.40
2017-11-28T19:47:07.166Z,5.40
2017-11-28T19:49:36.785Z,5.40
2017-11-28T19:52:05.148Z,5.40
2017-11-28T19:54:35.152Z,5.40
2017-11-28T19:57:03.866Z,5.30
2017-11-28T19:59:33.969Z,5.40
2017-11-28T20:02:02.714Z,5.40
2017-11-28T20:04:31.340Z,5.30
2017-11-28T20:07:01.024Z,5.30
2017-11-28T20:09:30.131Z,5.30
2017-11-28T20:11:58.643Z,5.20
2017-11-28T20:14:26.974Z,5.20
2017-11-28T20:16:57.935Z,5.20
2017-11-28T20:19:26.323Z,5.20
2017-11-28T20:21:54.738Z,5.20
2017-11-28T20:24:23.171Z,5.20
2017-11-28T20:26:52.280Z,5.20
2017-11-28T20:29:21.484Z,5.30
2017-11-28T20:31:50.740Z,5.20
2017-11-28T20:34:19.085Z,5.20
2017-11-28T20:36:48.554Z,5.20
2017-11-28T20:39:17.001Z,5.20
2017-11-28T20:41:46.273Z,5.10
2017-11-28T20:44:14.595Z,5.10
2017-11-28T20:46:42.947Z,5.20
2017-11-28T20:49:17.007Z,5.10
2017-11-28T20:51:45.373Z,5.20
2017-11-28T20:54:13.716Z,5.20
2017-11-28T20:56:42.144Z,5.30
2017-11-28T20:59:10.573Z,5.30
2017-11-28T21:01:39.111Z,5.30
2017-11-28T21:04:07.590Z,5.30
2017-11-28T21:06:36.385Z,5.30
2017-11-28T21:09:05.541Z,5.20
2017-11-28T21:11:33.868Z,5.20
2017-11-28T21:14:02.245Z,5.30
2017-11-28T21:16:30.713Z,5.30
2017-11-28T21:18:59.117Z,5.30
2017-11-28T21:21:27.565Z,5.20
2017-11-28T21:23:55.844Z,5.20
2017-11-28T21:26:25.375Z,5.20
2017-11-28T21:28:54.566Z,5.20
2017-11-28T21:31:23.054Z,5.20
2017-11-28T21:33:51.430Z,5.20
2017-11-28T21:36:19.800Z,5.20
2017-11-28T21:38:48.901Z,5.20
2017-11-28T21:41:17.559Z,5.20
2017-11-28T21:43:45.857Z,5.20
2017-11-28T21:46:14.286Z,5.20
2017-11-28T21:48:42.660Z,5.20
2017-11-28T21:51:11.049Z,5.30
2017-11-28T21:53:39.364Z,5.30
2017-11-28T21:56:07.688Z,5.20
2017-11-28T21:58:36.168Z,5.20
2017-11-28T22:01:05.207Z,5.10
2017-11-28T22:03:33.498Z,5.10
2017-11-28T22:06:01.833Z,5.10
2017-11-28T22:08:30.097Z,5.20
2017-11-28T22:10:59.179Z,5.10
2017-11-28T22:13:28.244Z,5.10
2017-11-28T22:15:56.547Z,5.10
2017-11-28T22:18:26.464Z,5.10
2017-11-28T22:20:55.540Z,5.20
2017-11-28T22:23:23.836Z,5.10
2017-11-28T22:25:52.895Z,5.20
2017-11-28T22:28:21.184Z,5.10
2017-11-28T22:30:49.484Z,5.10
2017-11-28T22:33:17.783Z,5.10
2017-11-28T22:35:46.062Z,5.10
2017-11-28T22:38:14.345Z,5.10
2017-11-28T22:40:42.621Z,5.10
2017-11-28T22:43:12.128Z,5.10
2017-11-28T22:45:40.718Z,5.10
2017-11-28T22:48:09.051Z,5.10
2017-11-28T22:50:37.326Z,5.00
2017-11-28T22:53:05.685Z,4.90
2017-11-28T22:55:33.983Z,4.90
2017-11-28T22:58:02.272Z,4.90
2017-11-28T23:00:30.518Z,4.90
2017-11-28T23:02:59.096Z,5.00
2017-11-28T23:05:27.511Z,5.00
2017-11-28T23:07:55.777Z,5.00
2017-11-28T23:10:24.107Z,4.90
2017-11-28T23:12:53.214Z,5.10
2017-11-28T23:15:22.292Z,5.00
2017-11-28T23:17:51.367Z,5.00
2017-11-28T23:20:19.735Z,5.00
2017-11-28T23:22:48.024Z,5.00
2017-11-28T23:25:16.325Z,5.00
2017-11-28T23:27:44.686Z,5.00
2017-11-28T23:30:12.981Z,5.00
2017-11-28T23:32:41.282Z,5.00
2017-11-28T23:35:09.583Z,5.10
2017-11-28T23:37:37.858Z,5.00
2017-11-28T23:40:06.173Z,5.10
2017-11-28T23:42:34.443Z,5.20
2017-11-28T23:45:02.766Z,5.20
2017-11-28T23:47:31.832Z,5.10
2017-11-28T23:50:00.185Z,5.10
2017-11-28T23:52:28.474Z,5.20
2017-11-28T23:54:56.751Z,5.10
2017-11-28T23:57:25.020Z,5.20
2017-11-28T23:59:53.287Z,5.20
